createdAt,value
2022-10-18T00:00:18.218Z,8.5
2022-10-18T00:05:24.629Z,8.6
2022-10-18T00:10:30.601Z,8.6
2022-10-18T00:15:19.632Z,8.5
2022-10-18T00:20:25.719Z,8.5
2022-10-18T00:25:31.834Z,8.5
2022-10-18T00:30:20.819Z,8.5
2022-10-18T00:35:26.515Z,8.4
2022-10-18T00:40:32.774Z,8.6
2022-10-18T00:45:21.579Z,8.8
2022-10-18T00:50:27.689Z,8.7
2022-10-18T00:55:16.789Z,8.6
2022-10-18T01:00:22.858Z,8.5
2022-10-18T01:05:28.195Z,8.4
2022-10-18T01:10:17.118Z,8.2
2022-10-18T01:15:23.211Z,8.3
2022-10-18T01:20:29.272Z,8.2
2022-10-18T01:25:18.345Z,8.0
2022-10-18T01:30:24.370Z,7.9
2022-10-18T01:35:30.270Z,7.9
2022-10-18T01:40:19.430Z,8.0
2022-10-18T01:45:25.459Z,7.9
2022-10-18T01:50:31.459Z,7.9
2022-10-18T01:55:20.490Z,7.9
2022-10-18T02:00:26.546Z,7.9
2022-10-18T02:05:31.887Z,7.8
2022-10-18T02:10:20.944Z,7.8
2022-10-18T02:15:27.014Z,7.8
2022-10-18T02:20:16.070Z,7.8
2022-10-18T02:25:22.120Z,7.8
2022-10-18T02:30:29.011Z,7.8
2022-10-18T02:35:16.897Z,7.7
2022-10-18T02:40:22.954Z,7.9
2022-10-18T02:45:29.045Z,7.9
2022-10-18T02:50:18.103Z,7.9
2022-10-18T02:55:24.076Z,8.1
2022-10-18T03:00:30.171Z,8.1
2022-10-18T03:05:19.541Z,8.2
2022-10-18T03:10:25.550Z,8.2
2022-10-18T03:15:31.622Z,8.1
2022-10-18T03:20:20.711Z,8.1
2022-10-18T03:25:26.759Z,7.9
2022-10-18T03:30:33.100Z,7.9
2022-10-18T03:35:21.634Z,7.9
2022-10-18T03:40:27.696Z,7.9
2022-10-18T03:45:16.767Z,7.9
2022-10-18T03:50:22.907Z,7.8
2022-10-18T03:55:28.868Z,7.8
2022-10-18T04:00:17.908Z,7.9
2022-10-18T04:05:23.330Z,7.9
2022-10-18T04:10:29.259Z,7.9
2022-10-18T04:15:18.316Z,7.8
2022-10-18T04:20:24.399Z,7.8
2022-10-18T04:25:30.515Z,7.8
2022-10-18T04:30:20.087Z,7.8
2022-10-18T04:35:25.346Z,7.8
2022-10-18T04:40:31.651Z,7.7
2022-10-18T04:45:20.437Z,7.7
2022-10-18T04:50:26.593Z,7.7
2022-10-18T04:55:32.518Z,7.8
2022-10-18T05:00:21.624Z,7.7
2022-10-18T05:05:37.914Z,7.8
2022-10-18T05:10:15.921Z,7.8
2022-10-18T05:15:22.033Z,7.8
2022-10-18T05:20:28.177Z,7.9
2022-10-18T05:25:17.123Z,8.0
2022-10-18T05:30:23.220Z,8.1
2022-10-18T05:35:28.975Z,8.2
2022-10-18T05:40:18.132Z,8.2
2022-10-18T05:45:24.329Z,8.3
2022-10-18T05:50:30.165Z,8.4
2022-10-18T05:55:19.254Z,8.4
2022-10-18T06:00:25.273Z,8.4
2022-10-18T06:05:31.819Z,8.6
2022-10-18T06:10:20.654Z,8.6
2022-10-18T06:15:26.696Z,8.5
2022-10-18T06:20:32.769Z,8.7
2022-10-18T06:25:21.831Z,8.9
2022-10-18T06:30:27.964Z,8.9
2022-10-18T06:35:16.587Z,8.9
2022-10-18T06:40:22.690Z,9.0
2022-10-18T06:45:28.855Z,9.2
2022-10-18T06:50:17.895Z,9.4
2022-10-18T06:55:23.962Z,9.5
2022-10-18T07:00:29.913Z,9.6
2022-10-18T07:05:18.324Z,9.8
2022-10-18T07:10:24.419Z,10.0
2022-10-18T07:15:30.452Z,10.1
2022-10-18T07:20:19.582Z,10.1
2022-10-18T07:25:28.417Z,10.1
2022-10-18T07:30:32.249Z,10.2
2022-10-18T07:35:20.339Z,10.3
2022-10-18T07:40:26.478Z,10.4
2022-10-18T07:45:32.603Z,10.7
2022-10-18T07:50:21.495Z,10.7
2022-10-18T07:55:27.627Z,10.7
2022-10-18T08:00:16.809Z,10.8
2022-10-18T08:05:22.055Z,10.9
2022-10-18T08:10:28.067Z,11.1
2022-10-18T08:15:17.069Z,11.2
2022-10-18T08:20:30.898Z,11.5
2022-10-18T08:25:29.350Z,11.4
2022-10-18T08:30:18.392Z,11.5
2022-10-18T08:35:24.727Z,11.5
2022-10-18T08:40:30.763Z,11.7
2022-10-18T08:45:37.306Z,12.0
2022-10-18T08:50:25.857Z,12.1
2022-10-18T08:55:32.523Z,12.2
2022-10-18T09:00:21.063Z,12.4
2022-10-18T09:05:26.305Z,12.6
2022-10-18T09:10:33.103Z,12.7
2022-10-18T09:15:21.375Z,13.0
2022-10-18T09:20:27.451Z,13.1
2022-10-18T09:25:17.271Z,13.1
2022-10-18T09:30:22.603Z,13.6
2022-10-18T09:35:28.223Z,13.7
2022-10-18T09:40:19.000Z,13.7
2022-10-18T09:45:23.338Z,14.1
2022-10-18T09:50:29.409Z,14.8
2022-10-18T09:55:18.408Z,15.1
2022-10-18T10:00:24.660Z,15.8
2022-10-18T10:05:29.898Z,16.3
2022-10-18T10:10:18.840Z,16.4
2022-10-18T10:15:25.538Z,16.4
2022-10-18T10:20:31.487Z,16.5
2022-10-18T10:25:20.000Z,16.9
2022-10-18T10:30:26.174Z,17.2
2022-10-18T10:36:07.154Z,17.4
2022-10-18T10:40:25.115Z,17.5
2022-10-18T10:45:27.086Z,17.6
2022-10-18T10:50:16.017Z,17.6
2022-10-18T10:55:34.887Z,18.1
2022-10-18T11:00:28.184Z,18.2
2022-10-18T11:05:17.503Z,18.3
2022-10-18T11:10:23.673Z,18.6
2022-10-18T11:15:29.998Z,19.3
2022-10-18T11:20:18.742Z,19.5
2022-10-18T11:25:24.724Z,19.7
2022-10-18T11:30:30.841Z,19.9
2022-10-18T11:35:20.042Z,20.0
2022-10-18T11:40:25.611Z,19.9
2022-10-18T11:45:31.702Z,19.8
2022-10-18T11:50:20.794Z,19.8
2022-10-18T11:55:30.301Z,19.7
2022-10-18T12:00:34.147Z,19.5
2022-10-18T12:05:24.886Z,19.3
2022-10-18T12:10:39.283Z,19.2
2022-10-18T12:15:16.303Z,19.0
2022-10-18T12:20:22.497Z,18.8
2022-10-18T12:25:28.379Z,18.4
2022-10-18T12:30:17.429Z,17.7
2022-10-18T12:35:23.918Z,17.3
2022-10-18T12:40:29.177Z,16.7
2022-10-18T12:45:18.264Z,16.3
2022-10-18T12:50:24.359Z,16.2
2022-10-18T12:55:30.386Z,16.0
2022-10-18T13:00:19.448Z,15.8
2022-10-18T13:05:41.060Z,15.9
2022-10-18T13:10:31.782Z,15.9
2022-10-18T13:15:26.262Z,15.9
2022-10-18T13:20:27.700Z,15.9
2022-10-18T13:25:33.077Z,15.9
2022-10-18T13:30:21.971Z,15.8
2022-10-18T13:35:27.771Z,15.8
2022-10-18T13:40:16.833Z,15.8
2022-10-18T13:45:22.879Z,15.8
2022-10-18T13:50:28.988Z,15.8
2022-10-18T13:55:18.003Z,15.8
2022-10-18T14:00:24.210Z,15.8
2022-10-18T14:05:29.504Z,15.8
2022-10-18T14:10:18.409Z,15.8
2022-10-18T14:15:24.505Z,15.7
2022-10-18T14:20:30.570Z,15.6
2022-10-18T14:25:19.580Z,15.6
2022-10-18T14:30:25.668Z,15.7
2022-10-18T14:35:32.978Z,15.9
2022-10-18T14:40:20.446Z,15.9
2022-10-18T14:45:26.548Z,16.1
2022-10-18T14:50:32.801Z,16.2
2022-10-18T14:55:21.596Z,16.2
2022-10-18T15:00:27.721Z,16.2
2022-10-18T15:05:15.984Z,16.1
2022-10-18T15:10:22.104Z,16.0
2022-10-18T15:15:28.165Z,16.0
2022-10-18T15:20:17.272Z,16.0
2022-10-18T15:25:25.019Z,15.9
2022-10-18T15:30:29.495Z,16.0
2022-10-18T15:35:22.137Z,16.0
2022-10-18T15:40:24.158Z,16.0
2022-10-18T15:45:31.016Z,15.9
2022-10-18T15:50:19.680Z,15.9
2022-10-18T15:55:25.217Z,15.8
2022-10-18T16:00:31.309Z,15.7
2022-10-18T16:05:20.709Z,15.6
2022-10-18T16:10:26.768Z,15.5
2022-10-18T16:15:32.807Z,15.3
2022-10-18T16:20:21.858Z,15.1
2022-10-18T16:25:27.842Z,14.9
2022-10-18T16:30:16.926Z,14.7
2022-10-18T16:35:22.718Z,14.5
2022-10-18T16:40:29.233Z,14.4
2022-10-18T16:45:17.785Z,14.2
2022-10-18T16:50:24.195Z,14.1
2022-10-18T16:55:29.978Z,14.1
2022-10-18T17:00:18.991Z,14.1
2022-10-18T17:05:24.364Z,14.0
2022-10-18T17:10:30.476Z,14.1
2022-10-18T17:15:19.410Z,14.1
2022-10-18T17:20:25.485Z,14.1
2022-10-18T17:25:42.838Z,14.1
2022-10-18T17:30:20.552Z,14.1
2022-10-18T17:35:26.524Z,14.2
2022-10-18T17:40:32.484Z,14.1
2022-10-18T17:45:21.496Z,14.0
2022-10-18T17:50:27.678Z,13.9
2022-10-18T17:55:16.574Z,13.8
2022-10-18T18:00:22.651Z,13.8
2022-10-18T18:05:28.553Z,14.0
2022-10-18T18:10:17.510Z,14.0
2022-10-18T18:15:23.841Z,14.0
2022-10-18T18:20:17.570Z,14.1
2022-10-18T18:25:18.694Z,14.1
2022-10-18T18:30:24.737Z,14.1
2022-10-18T18:35:30.084Z,14.0
2022-10-18T18:40:20.055Z,13.9
2022-10-18T18:45:25.185Z,13.8
2022-10-18T18:50:32.526Z,13.7
2022-10-18T18:55:20.254Z,13.7
2022-10-18T19:00:26.361Z,13.7
2022-10-18T19:05:32.338Z,13.8
2022-10-18T19:10:21.350Z,13.8
2022-10-18T19:15:27.511Z,13.8
2022-10-18T19:20:16.592Z,13.8
2022-10-18T19:25:24.808Z,13.7
2022-10-18T19:30:28.588Z,13.7
2022-10-18T19:35:17.754Z,13.7
2022-10-18T19:40:23.728Z,13.7
2022-10-18T19:45:29.825Z,13.6
2022-10-18T19:50:18.906Z,13.5
2022-10-18T19:55:25.025Z,13.5
2022-10-18T20:00:30.977Z,13.5
2022-10-18T20:05:19.284Z,13.5
2022-10-18T20:10:25.359Z,13.4
2022-10-18T20:15:31.546Z,13.4
2022-10-18T20:20:20.482Z,13.3
2022-10-18T20:25:26.507Z,13.3
2022-10-18T20:30:32.578Z,13.3
2022-10-18T20:35:21.351Z,13.3
2022-10-18T20:40:27.476Z,13.3
2022-10-18T20:45:16.492Z,13.2
2022-10-18T20:50:22.578Z,13.1
2022-10-18T20:55:28.921Z,13.1
2022-10-18T21:00:17.755Z,13.1
2022-10-18T21:05:22.964Z,12.9
2022-10-18T21:10:30.008Z,12.8
2022-10-18T21:15:18.090Z,12.6
2022-10-18T21:20:24.273Z,12.5
2022-10-18T21:25:30.370Z,12.4
2022-10-18T21:30:19.328Z,12.1
2022-10-18T21:35:25.068Z,11.9
2022-10-18T21:40:31.862Z,11.8
2022-10-18T21:45:20.210Z,11.7
2022-10-18T21:50:26.255Z,11.6
2022-10-18T21:55:32.367Z,11.6
2022-10-18T22:00:21.822Z,11.7
2022-10-18T22:05:27.281Z,11.6
2022-10-18T22:10:16.290Z,11.5
2022-10-18T22:15:22.406Z,11.4
2022-10-18T22:20:28.463Z,11.4
2022-10-18T22:25:17.396Z,11.4
2022-10-18T22:30:23.497Z,11.3
2022-10-18T22:35:29.753Z,11.2
2022-10-18T22:40:20.277Z,11.2
2022-10-18T22:45:24.992Z,11.2
2022-10-18T22:50:30.860Z,11.2
2022-10-18T22:55:19.899Z,11.2
2022-10-18T23:00:26.142Z,11.2
2022-10-18T23:05:31.310Z,11.2
2022-10-18T23:10:20.357Z,11.0
2022-10-18T23:15:26.409Z,11.0
2022-10-18T23:20:33.849Z,11.0
2022-10-18T23:25:21.470Z,10.9
2022-10-18T23:30:27.626Z,10.9
2022-10-18T23:35:16.437Z,10.8
2022-10-18T23:40:22.450Z,10.8
2022-10-18T23:45:28.582Z,10.6
2022-10-18T23:50:17.538Z,10.6
2022-10-18T23:55:23.596Z,10.5
